Time;durP1;ratioP1;P1;durP2;ratioP2;P2;SDS_P1;SDS_P2;PMS_P1;PMS_P2;Temp;Humidity;BMP_temperature;BMP_pressure;BME280_temperature;BME280_humidity;BME280_pressure;Samples;Min_cycle;Max_cycle;Signal;HPM_P1;HPM_P2
2022/03/23 04:01:41;;;;;;;1.95;1.83;;;17.10;49.90;;;;;;5348540;23;45834;-60
2022/03/23 04:04:07;;;;;;;2.20;2.00;;;17.10;49.80;;;;;;4971212;28;45307;-55
2022/03/23 04:06:32;;;;;;;1.67;1.55;;;17.10;49.90;;;;;;4998230;28;45530;-59
2022/03/23 04:08:58;;;;;;;1.75;1.65;;;17.10;49.90;;;;;;4988571;28;45253;-55
2022/03/23 04:11:24;;;;;;;2.13;1.90;;;17.10;49.90;;;;;;4985898;28;46038;-59
2022/03/23 04:13:49;;;;;;;1.98;1.67;;;17.10;49.90;;;;;;4979272;28;45601;-59
2022/03/23 04:16:15;;;;;;;2.58;1.73;;;17.10;49.90;;;;;;4979039;28;45038;-58
2022/03/23 04:18:40;;;;;;;2.13;1.92;;;17.10;49.90;;;;;;4994481;28;45186;-59
2022/03/23 04:21:07;;;;;;;2.22;2.03;;;17.10;49.90;;;;;;4991802;28;45118;-57
2022/03/23 04:23:33;;;;;;;1.90;1.67;;;17.10;50.00;;;;;;4997267;28;45199;-58
2022/03/23 04:25:59;;;;;;;2.00;1.80;;;17.00;49.90;;;;;;4979432;28;44756;-57
2022/03/23 04:28:24;;;;;;;1.95;1.75;;;17.10;50.00;;;;;;4990113;28;45886;-58
2022/03/23 04:30:50;;;;;;;1.95;1.75;;;17.10;50.00;;;;;;4991108;28;45957;-59
2022/03/23 04:33:15;;;;;;;2.00;1.90;;;17.00;49.90;;;;;;4995028;28;45020;-59
2022/03/23 04:35:41;;;;;;;2.33;2.03;;;17.00;49.90;;;;;;4991402;28;45333;-59
2022/03/23 04:38:06;;;;;;;2.13;1.98;;;17.00;49.90;;;;;;4985168;28;45497;-57
2022/03/23 04:40:32;;;;;;;2.10;1.90;;;17.00;49.90;;;;;;4988520;28;46171;-58
2022/03/23 04:42:58;;;;;;;2.45;1.98;;;17.00;49.90;;;;;;4987233;28;45478;-57
2022/03/23 04:45:24;;;;;;;2.40;2.05;;;17.00;49.90;;;;;;4990589;28;44783;-57
2022/03/23 04:47:49;;;;;;;2.58;2.05;;;16.90;49.90;;;;;;4983616;28;45569;-58
2022/03/23 04:50:16;;;;;;;2.03;1.83;;;17.00;50.00;;;;;;4984602;28;45197;-57
2022/03/23 04:52:43;;;;;;;3.15;2.13;;;17.00;50.00;;;;;;4988896;28;45246;-58
2022/03/23 04:55:09;;;;;;;2.45;1.98;;;17.00;50.00;;;;;;4981191;28;44888;-57
2022/03/23 04:57:35;;;;;;;2.55;1.90;;;17.00;50.00;;;;;;4982298;28;45272;-57
2022/03/23 05:00:01;;;;;;;2.13;1.88;;;17.00;50.00;;;;;;4992539;28;46302;-60
2022/03/23 05:02:27;;;;;;;2.53;1.95;;;17.00;50.00;;;;;;4989519;28;44741;-58
2022/03/23 05:04:53;;;;;;;2.55;2.00;;;16.90;50.00;;;;;;4992123;28;45288;-57
2022/03/23 05:07:18;;;;;;;4.38;2.10;;;16.90;50.00;;;;;;4994665;28;45548;-56
2022/03/23 05:09:44;;;;;;;2.10;1.90;;;16.90;50.00;;;;;;4987790;28;45765;-58
2022/03/23 05:12:09;;;;;;;2.13;1.92;;;16.90;50.00;;;;;;4984456;28;45197;-58
2022/03/23 05:14:36;;;;;;;2.00;1.80;;;16.90;50.00;;;;;;4994921;28;45432;-58
2022/03/23 05:17:02;;;;;;;1.88;1.67;;;16.90;50.00;;;;;;4985763;28;45581;-59
2022/03/23 05:19:28;;;;;;;1.98;1.77;;;16.90;50.00;;;;;;4984668;28;45323;-60
2022/03/23 05:21:53;;;;;;;2.10;1.90;;;16.90;50.00;;;;;;4986300;28;45427;-60
2022/03/23 05:24:19;;;;;;;2.30;2.10;;;16.90;50.00;;;;;;4989229;28;45489;-59
2022/03/23 05:26:44;;;;;;;2.38;1.90;;;16.90;50.00;;;;;;4982585;28;44961;-57
2022/03/23 05:29:10;;;;;;;2.80;2.25;;;16.90;50.00;;;;;;4989970;28;45321;-57
2022/03/23 05:31:36;;;;;;;2.47;2.05;;;16.80;49.90;;;;;;4981614;28;44962;-57
2022/03/23 05:34:01;;;;;;;1.83;1.63;;;16.80;50.00;;;;;;4993752;28;45417;-60
2022/03/23 05:36:27;;;;;;;2.00;1.80;;;16.80;49.90;;;;;;4984358;28;45484;-59
2022/03/23 05:38:53;;;;;;;2.15;1.95;;;16.80;49.90;;;;;;4993996;28;46497;-59
2022/03/23 05:41:18;;;;;;;2.03;1.83;;;16.90;50.00;;;;;;4981862;28;45068;-59
2022/03/23 05:43:44;;;;;;;2.40;1.88;;;16.80;49.90;;;;;;4991924;28;45607;-58
2022/03/23 05:46:09;;;;;;;2.30;2.03;;;16.90;50.00;;;;;;4988443;28;45449;-60
2022/03/23 05:48:35;;;;;;;2.78;1.95;;;16.80;49.90;;;;;;4992553;28;45904;-57
2022/03/23 05:51:01;;;;;;;2.20;1.98;;;16.80;49.90;;;;;;4983648;28;45369;-60
2022/03/23 05:53:26;;;;;;;2.58;2.00;;;16.80;50.00;;;;;;4988505;28;45479;-58
2022/03/23 05:55:52;;;;;;;1.98;1.77;;;16.80;49.90;;;;;;4988144;28;45257;-59
2022/03/23 05:58:18;;;;;;;2.50;2.03;;;16.90;50.00;;;;;;4981144;28;46205;-58
2022/03/23 06:00:44;;;;;;;1.95;1.77;;;16.90;50.00;;;;;;4988015;28;44857;-59
2022/03/23 06:03:09;;;;;;;2.30;1.92;;;16.90;50.00;;;;;;4983056;28;45326;-59
2022/03/23 06:05:35;;;;;;;3.28;2.10;;;16.90;49.80;;;;;;4983968;28;45098;-57
2022/03/23 06:08:01;;;;;;;2.05;1.85;;;17.00;49.60;;;;;;4994169;28;46467;-56
2022/03/23 06:10:26;;;;;;;2.28;1.92;;;17.30;49.00;;;;;;4982509;28;45215;-60
2022/03/23 06:12:52;;;;;;;2.30;1.80;;;18.00;47.90;;;;;;4984599;28;45501;-58
2022/03/23 06:15:18;;;;;;;1.92;1.73;;;18.40;46.80;;;;;;4983896;28;45036;-57
2022/03/23 06:17:43;;;;;;;2.30;2.10;;;18.10;46.90;;;;;;4989591;28;46048;-57
2022/03/23 06:20:09;;;;;;;2.83;2.10;;;17.60;47.90;;;;;;4979726;28;45615;-57
2022/03/23 06:22:35;;;;;;;2.40;2.00;;;17.40;48.60;;;;;;4990260;28;45038;-58
2022/03/23 06:25:01;;;;;;;2.45;1.95;;;17.20;48.90;;;;;;4981186;28;45159;-59
2022/03/23 06:27:27;;;;;;;1.92;1.73;;;17.10;49.20;;;;;;4987411;28;46033;-57
2022/03/23 06:29:52;;;;;;;2.30;2.10;;;17.10;49.40;;;;;;4984136;28;44973;-57
2022/03/23 06:32:18;;;;;;;2.45;2.00;;;17.00;49.40;;;;;;4994532;28;45079;-58
2022/03/23 06:34:44;;;;;;;2.10;1.90;;;17.00;49.50;;;;;;4995718;28;45151;-58
2022/03/23 06:37:09;;;;;;;2.13;1.92;;;17.00;49.50;;;;;;4994488;28;46216;-59
2022/03/23 06:39:35;;;;;;;2.33;2.00;;;17.00;49.60;;;;;;4994969;28;45456;-56
2022/03/23 06:42:00;;;;;;;2.08;1.88;;;17.00;49.60;;;;;;4987129;28;45567;-58
2022/03/23 06:44:26;;;;;;;2.50;1.83;;;16.90;49.60;;;;;;4999579;28;45194;-57
2022/03/23 06:46:52;;;;;;;2.00;1.77;;;16.90;49.60;;;;;;4985411;28;46329;-57
2022/03/23 06:49:17;;;;;;;2.03;1.75;;;16.90;49.60;;;;;;4995155;28;45214;-57
2022/03/23 06:51:43;;;;;;;2.00;1.77;;;17.00;49.60;;;;;;4992410;28;45374;-59
2022/03/23 06:54:09;;;;;;;2.60;2.10;;;16.90;49.50;;;;;;4993819;28;45259;-60
2022/03/23 06:56:34;;;;;;;2.55;1.88;;;16.90;49.50;;;;;;4992376;28;46148;-57
2022/03/23 06:59:00;;;;;;;2.20;1.88;;;16.90;49.50;;;;;;4992626;28;45331;-57
2022/03/23 07:01:25;;;;;;;6.40;2.58;;;17.00;49.50;;;;;;4960538;28;45617;-61
2022/03/23 07:03:51;;;;;;;3.50;2.35;;;17.00;49.20;;;;;;4994314;28;46450;-60
2022/03/23 07:06:17;;;;;;;3.83;2.53;;;17.00;49.00;;;;;;4984564;28;46178;-60
2022/03/23 07:11:28;;;;;;;2.90;2.53;;;17.20;48.80;;;;;;4980119;28;45081;-59
2022/03/23 07:13:53;;;;;;;2.78;2.22;;;17.30;48.60;;;;;;4992219;28;45549;-61
2022/03/23 07:16:19;;;;;;;2.90;2.25;;;17.50;48.40;;;;;;4987520;28;46136;-62
2022/03/23 07:18:44;;;;;;;4.97;2.50;;;17.60;48.20;;;;;;4991816;28;45155;-60
2022/03/23 07:21:11;;;;;;;2.30;1.98;;;17.70;48.10;;;;;;4986581;28;45301;-60
2022/03/23 07:23:36;;;;;;;2.50;1.98;;;17.80;47.90;;;;;;4985320;28;45212;-57
2022/03/23 07:26:03;;;;;;;2.60;1.85;;;18.00;47.90;;;;;;4992062;28;47146;-58
2022/03/23 07:28:28;;;;;;;2.25;2.05;;;18.10;47.70;;;;;;4986221;28;44638;-59
2022/03/23 07:30:54;;;;;;;2.42;1.95;;;18.30;47.70;;;;;;4993098;28;45092;-60
2022/03/23 07:33:20;;;;;;;2.47;2.20;;;18.30;47.50;;;;;;4987387;28;45202;-60
2022/03/23 07:35:46;;;;;;;2.70;1.88;;;18.50;47.50;;;;;;5004932;28;45994;-61
2022/03/23 07:38:12;;;;;;;3.72;1.98;;;18.60;47.40;;;;;;4993967;28;45379;-60
2022/03/23 07:40:38;;;;;;;3.17;2.22;;;18.70;47.20;;;;;;4987037;28;45155;-59
2022/03/23 07:43:04;;;;;;;2.70;1.80;;;18.80;47.10;;;;;;4989409;28;45429;-61
2022/03/23 07:45:30;;;;;;;2.38;2.17;;;19.00;47.00;;;;;;4994501;28;46026;-59
2022/03/23 07:47:56;;;;;;;2.45;1.77;;;19.10;46.90;;;;;;4994996;28;44946;-60
2022/03/23 07:50:21;;;;;;;1.70;1.60;;;19.20;46.80;;;;;;4993809;28;45722;-61
2022/03/23 07:52:47;;;;;;;1.95;1.75;;;19.40;46.70;;;;;;4978464;28;45139;-60
2022/03/23 07:55:13;;;;;;;4.32;2.13;;;19.50;46.70;;;;;;4992126;28;46138;-61
2022/03/23 07:57:38;;;;;;;3.45;1.85;;;19.60;46.60;;;;;;4989582;28;45239;-62
2022/03/23 08:00:04;;;;;;;2.17;1.77;;;19.70;46.50;;;;;;5000817;28;45251;-61
2022/03/23 08:02:30;;;;;;;2.80;1.85;;;19.80;46.40;;;;;;4989483;28;45627;-60
2022/03/23 08:04:56;;;;;;;2.65;1.75;;;19.90;46.30;;;;;;4979165;28;44960;-60
2022/03/23 08:07:22;;;;;;;1.83;1.70;;;20.10;46.20;;;;;;4976683;28;45227;-58
2022/03/23 08:09:48;;;;;;;3.92;1.40;;;20.20;46.10;;;;;;4992684;28;45128;-61
2022/03/23 08:12:16;;;;;;;1.67;1.20;;;20.30;46.00;;;;;;4991923;28;45292;-60
2022/03/23 08:14:46;;;;;;;3.63;2.08;;;20.40;46.00;;;;;;4979879;28;45655;-59
2022/03/23 08:17:12;;;;;;;1.50;1.17;;;20.50;45.80;;;;;;5007907;28;44592;-62
2022/03/23 08:19:37;;;;;;;2.25;1.73;;;20.60;45.80;;;;;;5011266;28;44888;-61
2022/03/23 08:22:03;;;;;;;1.85;1.52;;;20.70;45.70;;;;;;4974137;28;45440;-62
2022/03/23 08:24:29;;;;;;;1.60;1.50;;;20.80;45.60;;;;;;4976237;28;46180;-60
2022/03/23 08:26:54;;;;;;;2.10;1.60;;;21.00;45.50;;;;;;5010083;28;44917;-61
2022/03/23 08:29:20;;;;;;;;;;;21.00;45.40;;;;;;4992572;28;45644;-60
2022/03/23 08:31:46;;;;;;;1.50;1.40;;;21.20;44.90;;;;;;4976785;28;45609;-61
2022/03/23 08:34:12;;;;;;;1.55;1.45;;;21.20;45.30;;;;;;4992955;28;45634;-62
2022/03/23 08:36:38;;;;;;;4.07;1.60;;;21.40;45.30;;;;;;4986793;28;45263;-60
2022/03/23 08:39:03;;;;;;;1.88;1.77;;;21.50;45.10;;;;;;4988432;28;45246;-60
2022/03/23 08:41:29;;;;;;;1.50;1.30;;;21.60;45.00;;;;;;4997787;28;45296;-59
2022/03/23 08:43:54;;;;;;;2.22;1.20;;;21.70;44.90;;;;;;4978022;28;45674;-57
2022/03/23 08:46:21;;;;;;;2.35;1.17;;;21.70;44.80;;;;;;4986535;28;45385;-60
2022/03/23 08:48:46;;;;;;;2.13;1.25;;;21.90;44.80;;;;;;4996873;28;45203;-61
2022/03/23 08:51:12;;;;;;;4.03;1.48;;;22.00;44.80;;;;;;4992810;28;45429;-60
2022/03/23 08:53:42;;;;;;;1.42;1.33;;;22.00;45.20;;;;;;4976883;28;46042;-60
2022/03/23 08:56:08;;;;;;;1.55;1.45;;;22.10;44.60;;;;;;4982384;28;45077;-58
2022/03/23 08:58:34;;;;;;;1.65;1.30;;;22.20;44.60;;;;;;4993249;28;44705;-61
2022/03/23 09:00:59;;;;;;;2.75;1.27;;;22.30;44.50;;;;;;4992175;28;44996;-59
2022/03/23 09:03:26;;;;;;;2.25;1.20;;;22.40;44.50;;;;;;4992255;28;45116;-59
2022/03/23 09:05:52;;;;;;;1.63;1.30;;;22.50;44.40;;;;;;5005089;28;45232;-59
2022/03/23 09:08:18;;;;;;;3.08;1.17;;;22.50;44.30;;;;;;4997117;28;45407;-60
2022/03/23 09:10:43;;;;;;;1.50;1.30;;;22.60;44.30;;;;;;4996424;28;44878;-60
2022/03/23 09:13:09;;;;;;;1.38;1.27;;;22.70;44.20;;;;;;4994441;28;45407;-61
2022/03/23 09:15:34;;;;;;;1.70;1.40;;;22.70;44.10;;;;;;4994266;28;45575;-61
2022/03/23 09:18:01;;;;;;;1.48;1.20;;;22.80;44.10;;;;;;4993399;28;44994;-58
2022/03/23 09:20:28;;;;;;;2.28;1.40;;;22.90;44.10;;;;;;4978976;28;45204;-62
2022/03/23 09:22:54;;;;;;;1.20;1.10;;;22.90;44.00;;;;;;4990193;28;45292;-61
2022/03/23 09:25:22;;;;;;;1.17;1.08;;;23.00;44.00;;;;;;4988626;28;45926;-59
2022/03/23 09:27:48;;;;;;;1.20;1.10;;;23.10;43.90;;;;;;4989496;28;45122;-61
2022/03/23 09:30:13;;;;;;;1.52;1.27;;;23.10;43.80;;;;;;4995752;28;45452;-62
2022/03/23 09:32:41;;;;;;;2.88;1.63;;;23.10;43.80;;;;;;4989936;28;45949;-61
2022/03/23 09:35:06;;;;;;;;;;;23.20;43.80;;;;;;4995567;28;44959;-59
2022/03/23 09:37:47;;;;;;;2.00;1.30;;;23.30;43.10;;;;;;4992906;28;45675;-61
2022/03/23 09:40:27;;;;;;;1.45;0.93;;;23.30;43.70;;;;;;4990072;28;45280;-59
2022/03/23 09:42:57;;;;;;;1.30;1.20;;;23.40;43.70;;;;;;4984590;28;46188;-61
2022/03/23 09:45:46;;;;;;;1.52;1.13;;;23.40;43.60;;;;;;4992037;28;45142;-62
2022/03/23 09:48:12;;;;;;;2.75;1.40;;;23.50;43.60;;;;;;4985125;28;45229;-62
2022/03/23 09:50:39;;;;;;;1.88;1.25;;;23.50;43.60;;;;;;4972636;28;45265;-61
2022/03/23 09:53:05;;;;;;;1.40;1.13;;;23.60;43.50;;;;;;4972821;28;46186;-62
2022/03/23 09:55:31;;;;;;;1.65;1.10;;;23.60;43.50;;;;;;4996804;28;45181;-61
2022/03/23 09:57:57;;;;;;;1.60;1.25;;;23.70;43.50;;;;;;4995255;28;45586;-60
2022/03/23 10:00:23;;;;;;;1.92;1.33;;;23.70;43.40;;;;;;4992968;28;45097;-62
2022/03/23 10:02:58;;;;;;;1.10;1.00;;;23.80;43.40;;;;;;4987087;28;45474;-60
2022/03/23 10:06:01;;;;;;;2.88;0.95;;;23.80;43.20;;;;;;4995856;28;45218;-62
2022/03/23 10:09:06;;;;;;;0.90;0.90;;;23.80;42.90;;;;;;4982445;28;45443;-59
2022/03/23 10:12:09;;;;;;;1.65;1.13;;;23.90;42.90;;;;;;4985509;28;45234;-61
2022/03/23 10:15:13;;;;;;;3.13;1.23;;;24.00;42.90;;;;;;4989495;28;44963;-62
2022/03/23 10:18:06;;;;;;;1.27;1.00;;;24.00;42.90;;;;;;4996508;28;45191;-60
2022/03/23 10:20:32;;;;;;;1.55;1.05;;;24.00;42.90;;;;;;4969437;28;45252;-59
2022/03/23 10:22:57;;;;;;;1.77;1.27;;;24.10;43.30;;;;;;4987078;28;45735;-59
2022/03/23 10:25:27;;;;;;;1.05;0.98;;;24.10;43.20;;;;;;4994607;28;46130;-57
2022/03/23 10:27:55;;;;;;;1.77;1.40;;;24.10;43.10;;;;;;4996639;28;45492;-60
2022/03/23 10:30:32;;;;;;;3.28;1.00;;;24.20;43.10;;;;;;4978542;28;45701;-59
2022/03/23 10:32:58;;;;;;;1.10;1.00;;;24.20;42.80;;;;;;4997489;28;45237;-61
2022/03/23 10:35:37;;;;;;;1.88;1.08;;;24.20;43.10;;;;;;4989724;28;46070;-59
2022/03/23 10:38:19;;;;;;;1.52;1.25;;;24.30;42.90;;;;;;4995321;28;44564;-59
2022/03/23 10:40:47;;;;;;;0.80;0.80;;;24.30;42.90;;;;;;4993563;28;44672;-59
2022/03/23 10:43:21;;;;;;;3.17;1.40;;;24.30;43.00;;;;;;4994790;28;45018;-60
2022/03/23 10:45:47;;;;;;;1.55;1.23;;;24.50;42.70;;;;;;4979345;28;45314;-59
2022/03/23 10:48:17;;;;;;;1.25;1.15;;;24.40;42.80;;;;;;4986932;28;44876;-60
2022/03/23 10:50:53;;;;;;;1.38;1.20;;;24.40;42.80;;;;;;4973831;28;45243;-59
2022/03/23 10:53:37;;;;;;;1.70;1.00;;;24.40;42.80;;;;;;4973745;28;45606;-61
2022/03/23 10:56:03;;;;;;;1.85;1.10;;;24.50;42.70;;;;;;4980530;28;45282;-59
2022/03/23 10:58:28;;;;;;;1.27;0.98;;;24.50;42.90;;;;;;4958434;28;45242;-61
2022/03/23 11:00:55;;;;;;;1.38;1.00;;;24.50;42.90;;;;;;4993333;28;45299;-61
2022/03/23 11:03:38;;;;;;;1.52;1.10;;;24.60;42.90;;;;;;4997001;28;45223;-61
2022/03/23 11:06:06;;;;;;;1.15;1.00;;;24.60;42.80;;;;;;4979827;28;46289;-61
2022/03/23 11:08:31;;;;;;;1.23;1.10;;;24.60;42.80;;;;;;5011796;28;44792;-60
2022/03/23 11:16:47;;;;;;;3.38;0.80;;;24.70;42.80;;;;;;4992173;28;45066;-61
2022/03/23 11:19:19;;;;;;;1.67;1.15;;;24.70;42.80;;;;;;4996538;28;45162;-60
2022/03/23 11:22:12;;;;;;;1.60;1.27;;;24.70;42.70;;;;;;4999149;28;45413;-63
2022/03/23 11:24:40;;;;;;;1.10;0.95;;;24.80;42.50;;;;;;4995781;28;45643;-60
2022/03/23 11:27:08;;;;;;;2.30;0.95;;;24.80;42.80;;;;;;4987909;28;45987;-61
2022/03/23 11:29:35;;;;;;;2.72;1.25;;;24.80;42.70;;;;;;4987965;28;44979;-62
2022/03/23 11:32:02;;;;;;;1.48;1.15;;;24.80;42.70;;;;;;4982155;28;45271;-61
2022/03/23 11:34:27;;;;;;;1.08;0.90;;;24.80;42.70;;;;;;4995645;28;45329;-60
2022/03/23 11:36:54;;;;;;;1.05;0.85;;;24.80;42.60;;;;;;4987097;28;46368;-60
2022/03/23 11:39:21;;;;;;;1.23;1.10;;;24.90;42.60;;;;;;5001789;28;44858;-60
2022/03/23 11:41:47;;;;;;;1.10;1.00;;;24.90;42.70;;;;;;4991555;28;45324;-59
2022/03/23 11:44:16;;;;;;;2.65;1.10;;;24.80;42.60;;;;;;4987692;28;46146;-60
2022/03/23 11:46:42;;;;;;;0.80;0.80;;;24.90;42.60;;;;;;4991023;28;46146;-59
2022/03/23 11:49:25;;;;;;;1.00;0.90;;;24.90;42.60;;;;;;4998624;28;44679;-62
2022/03/23 11:52:00;;;;;;;2.15;0.90;;;24.90;42.30;;;;;;4979541;28;45189;-61
2022/03/23 11:57:22;;;;;;;0.85;0.80;;;24.90;42.50;;;;;;4994299;28;45486;-60
2022/03/23 11:59:48;;;;;;;2.22;1.10;;;24.90;42.60;;;;;;4984238;28;44670;-58
2022/03/23 12:02:17;;;;;;;0.80;0.75;;;24.90;42.50;;;;;;4992011;28;45339;-61
2022/03/23 12:04:42;;;;;;;1.38;1.10;;;25.00;42.50;;;;;;5000399;28;45111;-60
2022/03/23 12:07:09;;;;;;;1.35;1.23;;;24.90;42.40;;;;;;4993049;28;46170;-62
2022/03/23 12:09:44;;;;;;;3.55;1.20;;;24.90;42.10;;;;;;4994119;28;45282;-63
2022/03/23 12:12:38;;;;;;;2.58;1.13;;;24.80;41.70;;;;;;5002191;28;45188;-61
2022/03/23 12:15:22;;;;;;;1.17;1.02;;;24.80;41.90;;;;;;5005828;28;45667;-60
2022/03/23 12:17:54;;;;;;;1.33;0.85;;;24.70;42.00;;;;;;4995626;28;45966;-58
2022/03/23 12:20:41;;;;;;;2.40;1.13;;;24.60;42.10;;;;;;5005020;28;44819;-61
2022/03/23 12:23:55;;;;;;;2.17;1.30;;;24.60;41.40;;;;;;4988842;28;45344;-63
2022/03/23 12:26:29;;;;;;;3.67;1.13;;;24.50;40.10;;;;;;4979649;28;45359;-61
2022/03/23 12:29:05;;;;;;;1.15;1.05;;;24.40;40.50;;;;;;5001677;28;46848;-61
2022/03/23 12:31:38;;;;;;;1.58;1.30;;;24.40;40.80;;;;;;4980611;28;45266;-60
2022/03/23 12:34:11;;;;;;;2.38;1.38;;;24.30;40.90;;;;;;4992644;28;45124;-62
2022/03/23 12:36:57;;;;;;;1.17;1.00;;;24.30;41.10;;;;;;4975541;28;44795;-62
2022/03/23 12:39:35;;;;;;;1.70;1.30;;;24.20;41.40;;;;;;4996295;28;45300;-60
2022/03/23 12:42:12;;;;;;;1.40;1.30;;;24.20;41.50;;;;;;4988056;28;45328;-60
2022/03/23 12:44:46;;;;;;;2.15;1.23;;;24.10;41.70;;;;;;4981575;28;44739;-62
2022/03/23 12:47:20;;;;;;;1.33;1.23;;;24.10;41.90;;;;;;4987023;28;45852;-59
2022/03/23 12:58:09;;;;;;;1.45;1.17;;;23.90;42.40;;;;;;4988824;28;45072;-62
2022/03/23 13:00:40;;;;;;;1.42;1.10;;;23.80;42.50;;;;;;4987044;28;45278;-61
2022/03/23 13:03:05;;;;;;;1.40;1.20;;;23.80;42.60;;;;;;4987844;28;45660;-61
2022/03/23 13:05:38;;;;;;;1.27;0.98;;;23.80;42.70;;;;;;4995042;28;44939;-61
2022/03/23 13:08:23;;;;;;;1.20;1.10;;;23.70;42.70;;;;;;4972409;28;45181;-61
2022/03/23 13:10:59;;;;;;;1.20;1.00;;;23.70;42.80;;;;;;4995869;28;45538;-57
2022/03/23 13:13:25;;;;;;;3.20;0.95;;;23.60;42.90;;;;;;4986860;28;45254;-61
2022/03/23 13:15:51;;;;;;;1.33;1.08;;;23.60;43.10;;;;;;4988200;28;45153;-61
2022/03/23 13:18:17;;;;;;;1.30;1.20;;;23.60;43.20;;;;;;4991190;28;44840;-62
2022/03/23 13:20:49;;;;;;;1.33;1.15;;;23.60;43.80;;;;;;4990637;28;46709;-60
2022/03/23 13:23:17;;;;;;;1.00;0.90;;;23.50;43.30;;;;;;4967803;28;45155;-60
2022/03/23 13:25:43;;;;;;;1.48;1.00;;;23.50;43.40;;;;;;4991014;28;45372;-60
2022/03/23 13:28:15;;;;;;;1.90;1.10;;;23.50;43.50;;;;;;4985294;28;45221;-62
2022/03/23 13:30:42;;;;;;;6.22;1.10;;;23.40;43.50;;;;;;4985222;28;45484;-62
2022/03/23 13:33:17;;;;;;;1.40;1.20;;;23.40;43.60;;;;;;4992171;28;45293;-60
2022/03/23 13:35:45;;;;;;;1.23;1.13;;;23.40;43.60;;;;;;4983537;28;45775;-60
2022/03/23 13:38:11;;;;;;;1.20;1.08;;;23.30;43.70;;;;;;4995253;28;45340;-60
2022/03/23 13:43:26;;;;;;;4.40;1.38;;;23.30;43.80;;;;;;4998082;28;45449;-60
2022/03/23 13:45:53;;;;;;;1.52;1.00;;;23.20;43.90;;;;;;4989303;28;44704;-60
2022/03/23 13:48:19;;;;;;;1.25;1.10;;;23.20;44.00;;;;;;4983448;28;44821;-60
2022/03/23 13:50:49;;;;;;;1.52;1.17;;;23.20;44.00;;;;;;4997529;28;45578;-58
2022/03/23 13:53:15;;;;;;;4.00;1.30;;;23.20;44.10;;;;;;4991266;28;45191;-59
2022/03/23 13:55:47;;;;;;;1.20;0.90;;;23.10;44.10;;;;;;4994041;28;45200;-59
2022/03/23 13:58:13;;;;;;;1.98;1.38;;;23.10;44.20;;;;;;4992322;28;45140;-57
2022/03/23 14:00:39;;;;;;;1.20;1.02;;;23.10;44.30;;;;;;4991207;28;45176;-60
2022/03/23 14:03:05;;;;;;;1.20;1.10;;;23.10;44.30;;;;;;4980077;28;44984;-60
2022/03/23 14:05:31;;;;;;;1.73;1.40;;;23.10;44.40;;;;;;4993992;28;44826;-61
2022/03/23 14:07:57;;;;;;;1.30;1.20;;;23.00;44.40;;;;;;4987635;28;45564;-61
2022/03/23 14:10:36;;;;;;;1.48;1.30;;;23.00;44.50;;;;;;4988412;28;44880;-61
2022/03/23 14:13:08;;;;;;;2.13;1.10;;;23.00;44.60;;;;;;4992849;28;45359;-58
2022/03/23 14:15:51;;;;;;;1.85;1.40;;;22.90;44.60;;;;;;4993927;28;45687;-56
2022/03/23 14:18:21;;;;;;;1.42;1.20;;;22.90;44.60;;;;;;4989645;28;44875;-55
2022/03/23 14:20:52;;;;;;;1.30;1.15;;;22.90;44.60;;;;;;4995854;28;46051;-56
2022/03/23 14:23:26;;;;;;;1.40;1.17;;;22.80;44.70;;;;;;4990445;28;45434;-57
2022/03/23 14:25:52;;;;;;;1.80;1.35;;;22.80;44.80;;;;;;4986933;28;45034;-58
2022/03/23 14:28:22;;;;;;;1.20;1.00;;;22.80;44.90;;;;;;4983587;28;44656;-57
2022/03/23 14:30:59;;;;;;;1.15;1.05;;;22.70;44.90;;;;;;4991565;28;45758;-59
2022/03/23 14:33:26;;;;;;;1.55;1.40;;;22.70;45.00;;;;;;4984827;28;45514;-58
2022/03/23 14:35:51;;;;;;;2.58;1.55;;;22.70;45.00;;;;;;4989360;28;45201;-57
2022/03/23 14:38:18;;;;;;;1.20;1.10;;;22.70;45.10;;;;;;4983352;28;45115;-56
2022/03/23 14:40:51;;;;;;;1.42;1.20;;;22.70;45.10;;;;;;4992849;28;46241;-56
2022/03/23 14:43:36;;;;;;;1.67;1.30;;;22.60;45.20;;;;;;4999313;28;44944;-57
2022/03/23 14:46:20;;;;;;;1.30;1.20;;;22.60;45.40;;;;;;4988992;28;45155;-57
2022/03/23 14:49:07;;;;;;;1.33;1.00;;;22.60;45.40;;;;;;4990242;28;45008;-54
2022/03/23 14:51:33;;;;;;;3.63;1.02;;;22.50;45.30;;;;;;4982769;28;46780;-57
2022/03/23 14:54:01;;;;;;;1.67;1.13;;;22.50;45.40;;;;;;4987163;28;45594;-55
2022/03/23 14:56:27;;;;;;;1.70;1.33;;;22.50;45.40;;;;;;4988370;28;45684;-58
2022/03/23 14:58:59;;;;;;;1.45;1.17;;;22.50;45.50;;;;;;4993233;28;45276;-54
2022/03/23 15:01:25;;;;;;;3.20;1.08;;;22.50;45.60;;;;;;4984122;28;45524;-56
2022/03/23 15:03:50;;;;;;;1.70;1.30;;;22.40;45.50;;;;;;4991525;28;45194;-59
2022/03/23 15:14:30;;;;;;;1.52;1.20;;;22.40;45.70;;;;;;4979764;28;45301;-57
2022/03/23 15:16:55;;;;;;;1.65;1.20;;;22.40;45.80;;;;;;4994336;28;45279;-57
2022/03/23 15:19:21;;;;;;;1.30;1.10;;;22.40;45.80;;;;;;4987239;28;45395;-58
2022/03/23 15:21:46;;;;;;;1.48;1.20;;;22.30;45.80;;;;;;4990597;28;46072;-55
2022/03/23 15:24:12;;;;;;;1.30;1.20;;;22.30;45.90;;;;;;4991036;28;45102;-56
2022/03/23 15:26:38;;;;;;;1.55;1.30;;;22.30;45.90;;;;;;4989039;28;45476;-55
2022/03/23 15:29:03;;;;;;;1.35;1.25;;;22.30;46.00;;;;;;4987776;28;44803;-57
2022/03/23 15:31:29;;;;;;;1.10;1.00;;;22.30;46.10;;;;;;4991148;28;46088;-57
2022/03/23 15:33:55;;;;;;;1.05;0.90;;;22.20;46.00;;;;;;4979785;28;45163;-54
2022/03/23 15:36:21;;;;;;;1.10;1.00;;;22.20;46.10;;;;;;4989681;28;45331;-54
2022/03/23 15:38:47;;;;;;;1.25;1.10;;;22.20;46.10;;;;;;4986749;28;45305;-58
2022/03/23 15:41:13;;;;;;;3.20;1.40;;;22.20;46.70;;;;;;4986110;28;45936;-58
2022/03/23 15:43:44;;;;;;;1.77;1.10;;;22.20;46.20;;;;;;4986654;28;44760;-56
2022/03/23 15:46:10;;;;;;;2.08;1.40;;;22.20;46.30;;;;;;4987007;28;45377;-56
2022/03/23 15:48:35;;;;;;;1.60;0.93;;;22.20;46.30;;;;;;4989581;28;45765;-55
2022/03/23 15:51:03;;;;;;;1.42;1.10;;;22.10;46.30;;;;;;4981547;28;46006;-58
2022/03/23 15:53:29;;;;;;;1.52;0.95;;;22.10;46.30;;;;;;4993327;28;45668;-57
2022/03/23 15:55:55;;;;;;;1.30;1.20;;;22.20;46.40;;;;;;4994727;28;44854;-54
2022/03/23 15:58:21;;;;;;;1.23;1.13;;;22.10;47.00;;;;;;4988130;28;45425;-52
2022/03/23 16:00:47;;;;;;;1.52;1.10;;;22.10;46.40;;;;;;4990878;28;46019;-56
2022/03/23 16:03:13;;;;;;;1.17;1.00;;;22.10;46.40;;;;;;5000388;28;45462;-59
2022/03/23 16:05:38;;;;;;;1.23;1.13;;;22.10;46.50;;;;;;4987878;28;45159;-57
2022/03/23 16:08:05;;;;;;;1.50;1.30;;;22.10;46.50;;;;;;4992647;28;45210;-59
2022/03/23 16:10:31;;;;;;;1.58;1.45;;;22.10;46.50;;;;;;4994246;28;47014;-58
2022/03/23 16:12:57;;;;;;;1.63;1.27;;;22.10;46.60;;;;;;4990199;28;45254;-58
2022/03/23 16:15:24;;;;;;;2.10;1.10;;;22.10;46.60;;;;;;4991752;28;45191;-56
2022/03/23 16:17:54;;;;;;;2.25;1.05;;;22.00;46.50;;;;;;4984281;28;45604;-57
2022/03/23 16:20:19;;;;;;;1.50;1.38;;;22.10;46.70;;;;;;4989453;28;46059;-58
2022/03/23 16:22:46;;;;;;;1.45;1.15;;;22.00;46.60;;;;;;4991564;28;45304;-58
2022/03/23 16:25:12;;;;;;;1.08;0.90;;;22.00;46.60;;;;;;4990502;28;45234;-58
2022/03/23 16:27:38;;;;;;;2.80;1.13;;;22.00;46.60;;;;;;4989139;28;45608;-57
2022/03/23 16:30:05;;;;;;;1.40;1.20;;;22.00;46.70;;;;;;4993627;28;46017;-58
2022/03/23 16:32:31;;;;;;;1.10;1.02;;;22.00;46.70;;;;;;4995148;28;45137;-58
2022/03/23 16:34:57;;;;;;;1.45;1.15;;;21.90;46.70;;;;;;4990314;28;45317;-58
2022/03/23 16:37:25;;;;;;;1.67;1.33;;;21.90;46.80;;;;;;4985960;28;45472;-57
2022/03/23 16:39:51;;;;;;;2.45;1.42;;;21.90;46.80;;;;;;4985676;28;46100;-58
2022/03/23 16:42:17;;;;;;;1.13;1.02;;;21.90;46.80;;;;;;4990673;28;45365;-56
2022/03/23 16:44:44;;;;;;;1.65;1.40;;;21.90;46.80;;;;;;4992337;28;44985;-55
2022/03/23 16:47:10;;;;;;;1.42;1.33;;;21.90;46.90;;;;;;4987913;28;45350;-57
2022/03/23 16:49:35;;;;;;;1.20;1.10;;;21.90;46.90;;;;;;4996062;28;46149;-58
2022/03/23 16:52:02;;;;;;;1.13;1.02;;;21.80;46.80;;;;;;4991943;28;45144;-56
2022/03/23 16:54:29;;;;;;;1.73;1.13;;;21.90;47.00;;;;;;4989327;28;45698;-57
2022/03/23 16:56:55;;;;;;;2.33;1.15;;;21.80;47.60;;;;;;4989956;28;45427;-56
2022/03/23 16:59:22;;;;;;;1.40;1.30;;;21.80;47.00;;;;;;4988977;28;46088;-56
2022/03/23 17:01:48;;;;;;;0.93;0.93;;;21.80;47.10;;;;;;4988319;28;45319;-58
2022/03/23 17:12:29;;;;;;;1.17;1.08;;;21.60;47.90;;;;;;4994690;28;44747;-57
2022/03/23 17:14:59;;;;;;;1.65;1.40;;;21.60;47.50;;;;;;4993099;28;45033;-56
2022/03/23 17:17:25;;;;;;;1.30;1.20;;;21.60;47.50;;;;;;4992447;28;45443;-55
2022/03/23 17:19:50;;;;;;;1.45;1.10;;;21.50;47.50;;;;;;4988847;28;46062;-57
2022/03/23 17:22:16;;;;;;;1.45;1.30;;;21.50;47.60;;;;;;4991593;28;45465;-57
2022/03/23 17:24:42;;;;;;;1.88;1.10;;;21.50;47.60;;;;;;4988773;28;45261;-56
2022/03/23 17:27:08;;;;;;;2.90;1.20;;;21.40;47.60;;;;;;4993159;28;45334;-56
2022/03/23 17:29:35;;;;;;;1.55;1.45;;;21.50;47.70;;;;;;4993037;28;46066;-57
2022/03/23 17:32:04;;;;;;;1.77;1.27;;;21.40;47.80;;;;;;4995818;28;45523;-57
2022/03/23 17:34:30;;;;;;;1.95;1.80;;;21.40;47.80;;;;;;4986894;28;45014;-59